Time;durP1;ratioP1;P1;durP2;ratioP2;P2;SDS_P1;SDS_P2;PMS_P1;PMS_P2;Temp;Humidity;BMP_temperature;BMP_pressure;BME280_temperature;BME280_humidity;BME280_pressure;Samples;Min_cycle;Max_cycle;Signal;HPM_P1;HPM_P2
2023/02/10 00:01:40;;;;;;;32.55;13.25;;;-0.40;1.00;;;;;;5029783;28;20434;-56
2023/02/10 00:04:06;;;;;;;29.23;12.15;;;-0.40;1.00;;;;;;5030345;28;20394;-56
2023/02/10 00:06:32;;;;;;;25.40;12.35;;;-0.40;1.00;;;;;;5030459;28;20445;-56
2023/02/10 00:09:00;;;;;;;24.88;12.55;;;-0.50;1.00;;;;;;5012326;28;20425;-56
2023/02/10 00:14:12;;;;;;;29.35;13.00;;;-0.60;1.00;;;;;;5030703;28;20401;-56
2023/02/10 00:16:38;;;;;;;30.52;13.35;;;-0.70;1.00;;;;;;5029989;28;21175;-57
2023/02/10 00:19:04;;;;;;;27.38;11.13;;;-0.80;1.00;;;;;;5031013;28;20462;-61
2023/02/10 00:21:30;;;;;;;30.50;13.00;;;-0.70;1.00;;;;;;5030600;28;20798;-57
2023/02/10 00:23:56;;;;;;;30.50;12.90;;;-0.80;1.00;;;;;;5029654;28;20377;-56
2023/02/10 00:26:23;;;;;;;28.90;12.48;;;-0.80;1.00;;;;;;5030375;28;20399;-57
2023/02/10 00:28:48;;;;;;;30.58;13.70;;;-0.90;1.00;;;;;;5029364;28;20418;-56
2023/02/10 00:31:18;;;;;;;27.00;13.37;;;-1.00;1.00;;;;;;5012655;28;20768;-56
2023/02/10 00:33:45;;;;;;;32.80;12.82;;;-1.20;1.00;;;;;;5011564;28;20483;-56
2023/02/10 00:36:13;;;;;;;30.92;13.73;;;-1.10;1.00;;;;;;5012329;28;20404;-56
2023/02/10 00:38:40;;;;;;;29.98;12.45;;;-1.00;1.00;;;;;;5028670;28;20420;-56
2023/02/10 00:41:14;;;;;;;27.63;12.63;;;-1.10;1.00;;;;;;5030057;28;20411;-56
2023/02/10 00:43:40;;;;;;;33.25;13.80;;;-1.10;1.00;;;;;;5029693;28;20509;-56
2023/02/10 00:46:06;;;;;;;26.67;13.80;;;-1.20;1.00;;;;;;5029613;28;20780;-56
2023/02/10 00:48:32;;;;;;;26.95;11.40;;;-1.10;1.00;;;;;;5030323;28;20415;-57
2023/02/10 00:50:58;;;;;;;30.93;13.63;;;-1.10;1.00;;;;;;5029065;28;20927;-56
2023/02/10 00:53:23;;;;;;;36.77;13.50;;;-1.20;1.00;;;;;;5029898;28;20474;-56
2023/02/10 00:55:49;;;;;;;30.15;14.02;;;-1.30;1.00;;;;;;5028684;28;20782;-56
2023/02/10 00:58:14;;;;;;;30.83;13.80;;;-1.40;1.00;;;;;;5029728;28;20396;-56
2023/02/10 01:00:40;;;;;;;33.30;13.80;;;-1.50;1.00;;;;;;5028843;28;20434;-56
2023/02/10 01:03:06;;;;;;;28.80;12.90;;;-1.20;1.00;;;;;;5029699;28;20409;-54
2023/02/10 01:05:31;;;;;;;35.15;14.18;;;-1.60;1.00;;;;;;5029562;28;20477;-57
2023/02/10 01:07:57;;;;;;;32.00;14.00;;;-1.00;1.00;;;;;;5028593;28;20414;-56
2023/02/10 01:10:23;;;;;;;33.33;13.93;;;-1.60;14.60;;;;;;5029781;28;20484;-56
2023/02/10 01:12:48;;;;;;;32.28;14.20;;;-1.50;50.10;;;;;;5028568;28;20395;-55
2023/02/10 01:15:14;;;;;;;33.70;14.02;;;-1.50;72.80;;;;;;5011353;28;20414;-56
2023/02/10 01:17:39;;;;;;;36.83;14.63;;;-0.40;1.00;;;;;;5029282;28;20398;-56
2023/02/10 01:20:06;;;;;;;35.63;14.47;;;-1.60;1.00;;;;;;5029076;28;20410;-56
2023/02/10 01:22:33;;;;;;;32.35;14.68;;;-1.60;1.00;;;;;;5029692;28;20390;-56
2023/02/10 01:24:58;;;;;;;32.22;13.82;;;-1.70;1.00;;;;;;5028863;28;20471;-56
2023/02/10 01:27:24;;;;;;;31.57;15.03;;;-1.70;1.00;;;;;;5026654;28;20763;-56
2023/02/10 01:29:50;;;;;;;29.30;14.40;;;-1.60;1.00;;;;;;5028421;28;20399;-56
2023/02/10 01:32:15;;;;;;;34.08;14.90;;;-1.50;1.00;;;;;;5029598;28;20490;-56
2023/02/10 01:34:41;;;;;;;35.97;13.83;;;-1.50;96.30;;;;;;5029100;28;20380;-56
2023/02/10 01:37:07;;;;;;;33.35;14.52;;;-1.50;99.90;;;;;;5011644;28;20449;-54
2023/02/10 01:39:33;;;;;;;36.17;14.10;;;-1.60;99.90;;;;;;5029151;28;20387;-53
2023/02/10 01:41:59;;;;;;;35.38;14.98;;;-1.70;99.90;;;;;;5028533;28;20383;-53
2023/02/10 01:44:25;;;;;;;33.53;14.40;;;-1.60;99.90;;;;;;5028895;28;20399;-56
2023/02/10 01:46:51;;;;;;;34.60;14.32;;;-1.50;99.90;;;;;;5027149;28;20453;-56
2023/02/10 01:49:22;;;;;;;35.50;14.97;;;-1.50;99.90;;;;;;5029053;28;20427;-56
2023/02/10 01:51:56;;;;;;;32.60;13.75;;;-1.50;89.10;;;;;;5025956;28;20414;-56
2023/02/10 01:54:30;;;;;;;35.95;15.25;;;-1.50;99.90;;;;;;5028990;28;20763;-56
2023/02/10 01:56:57;;;;;;;33.45;15.90;;;-1.60;99.90;;;;;;5028490;28;20399;-56
2023/02/10 01:59:27;;;;;;;31.45;14.25;;;-1.60;99.90;;;;;;5028985;28;20388;-53
2023/02/10 02:01:53;;;;;;;35.22;15.02;;;-1.70;99.90;;;;;;5028001;28;20486;-53
2023/02/10 02:04:20;;;;;;;32.05;14.45;;;-1.80;99.90;;;;;;5028830;28;20733;-53
2023/02/10 02:06:46;;;;;;;30.55;13.02;;;-1.80;99.90;;;;;;5023091;28;20400;-53
2023/02/10 02:09:12;;;;;;;35.15;14.20;;;-1.80;99.90;;;;;;5029027;28;20469;-55
2023/02/10 02:11:46;;;;;;;31.65;13.52;;;-1.90;99.90;;;;;;5028458;28;20947;-55
2023/02/10 02:14:28;;;;;;;35.70;15.63;;;-1.90;99.90;;;;;;5028734;28;20407;-55
2023/02/10 02:17:21;;;;;;;37.35;15.20;;;-1.90;1.00;;;;;;5025624;28;20450;-55
2023/02/10 02:23:09;;;;;;;33.85;13.93;;;-1.90;1.00;;;;;;5027101;28;20802;-55
2023/02/10 02:25:44;;;;;;;33.15;14.60;;;-2.00;1.00;;;;;;5028473;28;20410;-55
2023/02/10 02:28:24;;;;;;;39.47;14.40;;;-2.00;1.00;;;;;;5027217;28;20411;-55
2023/02/10 02:31:18;;;;;;;35.65;16.00;;;;;;;;;;5027813;28;20448;-54
2023/02/10 02:33:57;;;;;;;31.63;14.38;;;-2.20;1.00;;;;;;5011022;28;20379;-53
2023/02/10 02:36:37;;;;;;;32.67;13.20;;;-2.20;1.00;;;;;;5029066;28;20390;-55
2023/02/10 02:39:05;;;;;;;27.45;13.88;;;-2.10;1.00;;;;;;5027648;28;20403;-55
2023/02/10 02:41:32;;;;;;;31.58;13.70;;;-2.10;1.00;;;;;;5028908;28;20395;-55
2023/02/10 02:44:00;;;;;;;39.67;14.13;;;-2.10;1.00;;;;;;5027888;28;20399;-55
2023/02/10 02:47:06;;;;;;;31.60;15.30;;;-2.10;1.00;;;;;;5028806;28;20556;-55
2023/02/10 02:49:42;;;;;;;26.60;12.60;;;;;;;;;;5028431;28;20911;-55
2023/02/10 02:52:14;;;;;;;35.73;15.73;;;-2.00;1.00;;;;;;5028449;28;20512;-55
2023/02/10 02:54:52;;;;;;;31.73;13.77;;;-2.00;1.00;;;;;;5028602;28;20479;-55
2023/02/10 02:57:46;;;;;;;34.65;13.43;;;-2.00;1.00;;;;;;5022374;28;20418;-55
2023/02/10 03:00:20;;;;;;;30.73;14.67;;;-1.90;1.00;;;;;;5032162;28;20436;-55
2023/02/10 03:02:46;;;;;;;34.55;13.90;;;-1.80;1.00;;;;;;5031938;28;20390;-55
2023/02/10 03:05:21;;;;;;;30.05;14.32;;;-1.80;1.00;;;;;;5032472;28;20380;-55
2023/02/10 03:07:47;;;;;;;33.95;13.68;;;-1.80;1.00;;;;;;5031483;28;20422;-55
2023/02/10 03:10:13;;;;;;;31.30;14.80;;;-1.80;99.90;;;;;;5032213;28;20394;-55
2023/02/10 03:12:39;;;;;;;31.60;13.10;;;-2.00;1.00;;;;;;5031879;28;20391;-55
2023/02/10 03:15:04;;;;;;;34.00;13.63;;;-2.00;1.00;;;;;;5032076;28;20465;-55
2023/02/10 03:17:33;;;;;;;31.98;16.02;;;-2.00;1.00;;;;;;5031830;28;20998;-55
2023/02/10 03:19:59;;;;;;;36.17;14.20;;;-2.00;1.00;;;;;;5031328;28;20425;-55
2023/02/10 03:22:25;;;;;;;36.15;15.77;;;-2.00;1.00;;;;;;5032080;28;20809;-55
2023/02/10 03:24:51;;;;;;;36.05;14.20;;;-2.00;1.00;;;;;;5030826;28;20489;-55
2023/02/10 03:27:17;;;;;;;34.97;13.73;;;-2.00;1.00;;;;;;5032122;28;20480;-55
2023/02/10 03:29:42;;;;;;;32.08;14.00;;;-2.10;1.00;;;;;;5030938;28;20483;-55
2023/02/10 03:32:09;;;;;;;31.73;14.60;;;-1.90;1.00;;;;;;5032101;28;20391;-55
2023/02/10 03:34:35;;;;;;;32.53;12.63;;;-2.20;1.00;;;;;;5014675;28;20407;-55
2023/02/10 03:37:00;;;;;;;30.60;12.60;;;-2.10;1.00;;;;;;5031224;28;20963;-55
2023/02/10 03:39:26;;;;;;;38.70;14.55;;;-2.20;99.90;;;;;;5031822;28;20411;-55
2023/02/10 03:41:53;;;;;;;35.47;14.03;;;-2.10;1.00;;;;;;5030914;28;20443;-55
2023/02/10 03:44:18;;;;;;;35.33;15.00;;;-2.10;1.00;;;;;;5031744;28;20387;-55
2023/02/10 03:46:44;;;;;;;28.03;11.87;;;-2.10;99.90;;;;;;5031001;28;20422;-55
2023/02/10 03:49:10;;;;;;;31.27;13.00;;;-2.10;99.90;;;;;;5031419;28;20494;-55
2023/02/10 03:51:35;;;;;;;30.33;14.00;;;-2.10;99.90;;;;;;5031230;28;20489;-55
2023/02/10 03:54:01;;;;;;;35.40;14.85;;;-2.20;99.90;;;;;;5030146;28;20471;-56
2023/02/10 03:56:28;;;;;;;32.13;14.33;;;-2.20;1.00;;;;;;5030899;28;20486;-56
2023/02/10 03:58:54;;;;;;;32.17;13.93;;;-2.20;1.00;;;;;;5030241;28;20395;-56
2023/02/10 04:01:19;;;;;;;33.80;15.90;;;-2.30;1.00;;;;;;5031126;28;20483;-55
2023/02/10 04:03:45;;;;;;;34.35;14.30;;;-2.30;1.00;;;;;;5030457;28;20740;-56
2023/02/10 04:06:12;;;;;;;35.63;14.15;;;-2.20;1.00;;;;;;5031292;28;20371;-55
2023/02/10 04:08:37;;;;;;;37.90;14.15;;;-2.20;1.00;;;;;;5030660;28;20833;-56
2023/02/10 04:11:03;;;;;;;36.70;14.57;;;-2.20;1.00;;;;;;5029578;28;20474;-56
2023/02/10 04:13:29;;;;;;;30.27;14.38;;;-2.20;1.00;;;;;;5014075;28;20402;-55
2023/02/10 04:16:02;;;;;;;31.67;13.53;;;-2.20;1.00;;;;;;5030132;28;20395;-55
2023/02/10 04:18:28;;;;;;;30.60;13.45;;;;;;;;;;5030195;28;20427;-55
2023/02/10 04:20:53;;;;;;;37.20;14.27;;;-2.30;99.90;;;;;;5030265;28;20378;-55
2023/02/10 04:23:19;;;;;;;38.22;14.60;;;-2.30;99.90;;;;;;5013052;28;20399;-55
2023/02/10 04:25:45;;;;;;;29.93;13.80;;;-2.30;99.90;;;;;;5012917;28;20456;-55
2023/02/10 04:28:10;;;;;;;40.20;13.60;;;-2.30;99.90;;;;;;5030347;28;20411;-55
2023/02/10 04:30:36;;;;;;;35.72;13.57;;;-2.40;99.90;;;;;;5012040;28;20491;-56
2023/02/10 04:33:01;;;;;;;37.05;14.80;;;-2.40;99.90;;;;;;5012062;28;20395;-56
2023/02/10 04:35:27;;;;;;;32.90;14.57;;;-2.40;1.00;;;;;;5029808;28;20387;-56
2023/02/10 04:37:53;;;;;;;34.40;14.93;;;-2.40;1.00;;;;;;5029352;28;20457;-56
2023/02/10 04:40:20;;;;;;;32.78;14.73;;;-2.40;1.00;;;;;;5029838;28;20391;-55
2023/02/10 04:42:45;;;;;;;35.03;14.93;;;-2.40;1.00;;;;;;5028487;28;20403;-55
2023/02/10 04:45:11;;;;;;;33.22;14.07;;;-2.30;1.00;;;;;;5029907;28;20490;-56
2023/02/10 04:47:37;;;;;;;39.42;15.55;;;;;;;;;;5029519;28;20419;-55
2023/02/10 04:50:04;;;;;;;37.40;16.30;;;-2.30;99.90;;;;;;5028897;28;20391;-56
2023/02/10 04:52:29;;;;;;;39.10;14.80;;;-2.30;99.90;;;;;;5027372;28;20471;-56
2023/02/10 04:54:55;;;;;;;37.87;15.27;;;-2.30;99.90;;;;;;5029401;28;20437;-55
2023/02/10 04:57:20;;;;;;;30.27;14.38;;;-2.20;99.90;;;;;;5029977;28;20874;-55
2023/02/10 04:59:46;;;;;;;34.45;13.98;;;-2.30;99.90;;;;;;5028778;28;20380;-56
2023/02/10 05:02:12;;;;;;;35.77;15.60;;;-2.10;98.20;;;;;;5029019;28;20410;-56
2023/02/10 05:04:37;;;;;;;32.60;14.47;;;-2.10;99.90;;;;;;5029659;28;20970;-55
2023/02/10 05:07:03;;;;;;;37.33;14.77;;;-2.20;99.90;;;;;;5028561;28;20429;-55
2023/02/10 05:09:30;;;;;;;33.97;15.10;;;;;;;;;;5027719;28;20423;-56
2023/02/10 05:11:56;;;;;;;31.55;14.18;;;-2.20;99.90;;;;;;5029401;28;20478;-55
2023/02/10 05:14:22;;;;;;;33.58;13.80;;;-2.20;99.90;;;;;;5029589;28;20510;-55
2023/02/10 05:16:47;;;;;;;29.33;12.98;;;-2.20;99.90;;;;;;5028146;28;20423;-56
2023/02/10 05:19:16;;;;;;;35.70;15.70;;;-2.10;1.00;;;;;;5029995;28;20387;-55
2023/02/10 05:21:42;;;;;;;32.22;14.75;;;-2.20;1.00;;;;;;5029255;28;20387;-56
2023/02/10 05:24:07;;;;;;;34.88;14.55;;;-2.30;1.00;;;;;;5027856;28;20414;-55
2023/02/10 05:26:33;;;;;;;37.10;15.30;;;-2.30;1.00;;;;;;5029838;28;20391;-55
2023/02/10 05:28:58;;;;;;;37.90;15.07;;;-2.40;1.00;;;;;;5028947;28;20415;-55
2023/02/10 05:31:24;;;;;;;40.75;14.95;;;-2.60;1.00;;;;;;5029554;28;20533;-55
2023/02/10 05:33:50;;;;;;;31.93;14.80;;;;;;;;;;5028075;28;20407;-55
2023/02/10 05:36:15;;;;;;;32.33;14.25;;;-2.40;99.90;;;;;;5029502;28;20383;-55
2023/02/10 05:39:22;;;;;;;34.37;14.03;;;-2.40;65.70;;;;;;5029714;28;20403;-55
2023/02/10 05:41:26;;;;;;;37.75;15.73;;;-2.30;99.90;;;;;;5028988;28;20387;-55
2023/02/10 05:43:52;;;;;;;31.55;14.43;;;-2.40;99.90;;;;;;5028950;28;20394;-55
2023/02/10 05:46:18;;;;;;;38.70;16.33;;;-2.50;1.60;;;;;;5029068;28;20864;-55
2023/02/10 05:48:45;;;;;;;33.42;14.73;;;-2.50;1.00;;;;;;5028713;28;20423;-55
2023/02/10 05:51:11;;;;;;;34.13;14.50;;;-2.50;1.00;;;;;;5025399;28;20407;-55
2023/02/10 05:53:36;;;;;;;39.00;17.27;;;-2.50;1.00;;;;;;5025445;28;20433;-55
2023/02/10 05:56:02;;;;;;;34.23;17.40;;;-2.40;1.00;;;;;;5026681;28;21094;-55
2023/02/10 05:58:27;;;;;;;38.58;15.93;;;-2.50;82.20;;;;;;5021775;28;20957;-55
2023/02/10 06:00:53;;;;;;;37.60;15.20;;;-2.50;99.90;;;;;;5020430;28;20391;-55
2023/02/10 06:03:19;;;;;;;38.17;16.73;;;-2.40;2.20;;;;;;5015893;28;20415;-55
2023/02/10 06:05:45;;;;;;;32.10;14.73;;;-2.60;1.00;;;;;;5028574;28;20835;-55
2023/02/10 06:08:11;;;;;;;36.05;15.77;;;-2.60;1.00;;;;;;5026756;28;20458;-55
2023/02/10 06:10:36;;;;;;;36.80;15.57;;;-2.60;1.00;;;;;;5024708;28;20415;-55
2023/02/10 06:13:02;;;;;;;36.03;15.20;;;-2.70;1.00;;;;;;5025270;28;20393;-55
2023/02/10 06:15:29;;;;;;;33.30;15.20;;;-2.70;36.10;;;;;;5028745;28;20449;-55
2023/02/10 06:17:54;;;;;;;31.25;15.30;;;-2.90;1.00;;;;;;5023804;28;20423;-55
2023/02/10 06:20:20;;;;;;;35.83;15.33;;;-3.00;1.00;;;;;;5018486;28;20459;-55
2023/02/10 06:22:45;;;;;;;35.75;16.10;;;-3.00;99.90;;;;;;5023162;28;20902;-55
2023/02/10 06:25:11;;;;;;;32.88;14.43;;;-3.10;99.90;;;;;;5025399;28;20463;-55
2023/02/10 06:27:37;;;;;;;42.77;16.63;;;-3.00;99.90;;;;;;5028527;28;20922;-55
2023/02/10 06:30:02;;;;;;;38.80;16.43;;;-3.10;99.90;;;;;;5027928;28;20784;-55
2023/02/10 06:32:28;;;;;;;39.75;16.42;;;-3.00;99.90;;;;;;5028785;28;20438;-55
2023/02/10 06:34:54;;;;;;;36.10;15.98;;;-3.00;99.90;;;;;;5030727;28;20411;-55
2023/02/10 06:37:19;;;;;;;36.40;15.07;;;-3.10;1.00;;;;;;5027885;28;20886;-54
2023/02/10 06:39:45;;;;;;;43.50;18.00;;;-3.00;1.00;;;;;;5022764;28;20395;-54
2023/02/10 06:42:10;;;;;;;32.58;14.77;;;-2.90;1.00;;;;;;5031679;28;20413;-55
2023/02/10 06:44:36;;;;;;;35.60;16.90;;;-3.00;1.00;;;;;;5032538;28;20403;-55
2023/02/10 06:47:01;;;;;;;34.97;15.15;;;-3.00;1.00;;;;;;5031406;28;20398;-55
2023/02/10 06:49:27;;;;;;;33.70;15.97;;;-2.90;99.90;;;;;;5032436;28;20479;-55
2023/02/10 06:51:52;;;;;;;36.33;14.73;;;-3.00;1.00;;;;;;5014279;28;20395;-55
2023/02/10 06:54:18;;;;;;;37.50;16.70;;;-2.90;1.00;;;;;;5032438;28;20885;-55
2023/02/10 06:56:45;;;;;;;39.20;16.70;;;-2.90;17.40;;;;;;5032343;28;20410;-54
2023/02/10 06:59:11;;;;;;;38.67;16.50;;;-2.80;1.00;;;;;;5032038;28;20401;-54
2023/02/10 07:01:37;;;;;;;35.05;16.35;;;-2.70;1.00;;;;;;5032404;28;20399;-55
2023/02/10 07:04:03;;;;;;;39.17;18.20;;;-2.70;1.00;;;;;;5010834;28;20407;-55
2023/02/10 07:06:28;;;;;;;34.10;16.25;;;-2.70;99.90;;;;;;5026824;28;20437;-56
2023/02/10 07:08:54;;;;;;;34.03;14.93;;;-2.50;99.90;;;;;;5013606;28;20905;-55
2023/02/10 07:11:20;;;;;;;36.40;15.80;;;;;;;;;;5032606;28;20414;-54
2023/02/10 07:13:47;;;;;;;37.17;16.15;;;-2.30;1.00;;;;;;5008741;28;20416;-55
2023/02/10 07:16:14;;;;;;;36.20;17.03;;;-2.20;99.90;;;;;;5014864;28;20481;-55
2023/02/10 07:18:41;;;;;;;34.75;16.17;;;-2.10;99.90;;;;;;5031723;28;20418;-55
2023/02/10 07:21:06;;;;;;;37.25;16.67;;;-2.10;99.90;;;;;;5031106;28;20391;-55
2023/02/10 07:23:33;;;;;;;42.83;16.65;;;-2.10;1.00;;;;;;5020863;28;20393;-55
2023/02/10 07:25:59;;;;;;;40.65;16.77;;;-2.10;99.90;;;;;;5031119;28;20441;-55
2023/02/10 07:28:25;;;;;;;42.42;17.20;;;-1.80;1.00;;;;;;5031916;28;20415;-54
2023/02/10 07:30:52;;;;;;;35.20;17.87;;;;;;;;;;5031211;28;20510;-55
2023/02/10 07:33:18;;;;;;;36.20;17.63;;;;;;;;;;5031867;28;20401;-55
2023/02/10 07:35:43;;;;;;;34.72;18.98;;;-1.40;1.00;;;;;;5031268;28;20391;-55
2023/02/10 07:38:09;;;;;;;43.33;17.00;;;-1.30;1.00;;;;;;5031166;28;20395;-55
2023/02/10 07:40:35;;;;;;;33.73;17.47;;;-1.00;1.00;;;;;;5016669;28;20474;-57
2023/02/10 07:43:00;;;;;;;42.70;18.27;;;-0.70;1.00;;;;;;5026318;28;20399;-58
2023/02/10 07:45:26;;;;;;;44.63;19.13;;;0.40;1.00;;;;;;5031752;28;21235;-56
2023/02/10 07:47:53;;;;;;;38.05;18.48;;;1.30;99.90;;;;;;5030581;28;20887;-56
2023/02/10 07:50:19;;;;;;;38.30;18.50;;;2.70;1.00;;;;;;5030918;28;20460;-56
2023/02/10 07:52:44;;;;;;;32.70;15.77;;;3.80;1.00;;;;;;5013308;28;20391;-57
2023/02/10 07:55:10;;;;;;;39.57;16.73;;;4.50;1.00;;;;;;5031685;28;20486;-57
2023/02/10 07:57:38;;;;;;;37.47;17.67;;;6.30;99.90;;;;;;5031174;28;20394;-57
2023/02/10 08:00:05;;;;;;;33.97;16.23;;;5.80;99.90;;;;;;5030324;28;20512;-57
2023/02/10 08:02:30;;;;;;;36.20;17.27;;;6.00;99.90;;;;;;5031123;28;20495;-57
2023/02/10 08:04:57;;;;;;;33.77;15.90;;;6.10;99.90;;;;;;5030135;28;20512;-57
2023/02/10 08:07:23;;;;;;;32.50;16.38;;;6.40;99.90;;;;;;5030813;28;20884;-57
2023/02/10 08:09:49;;;;;;;35.33;16.47;;;6.40;99.90;;;;;;5030767;28;20427;-57
2023/02/10 08:12:14;;;;;;;34.00;16.17;;;6.60;99.90;;;;;;5031534;28;20384;-57
2023/02/10 08:14:41;;;;;;;32.10;16.25;;;8.60;99.90;;;;;;5031241;28;20391;-58
2023/02/10 08:17:07;;;;;;;37.10;16.92;;;7.80;99.90;;;;;;5029988;28;20582;-57
2023/02/10 08:19:36;;;;;;;36.33;17.30;;;10.00;99.90;;;;;;5031234;28;20418;-58
2023/02/10 08:22:05;;;;;;;38.28;18.40;;;10.00;99.90;;;;;;5029746;28;20403;-58
2023/02/10 08:24:31;;;;;;;36.88;19.08;;;9.60;99.90;;;;;;5030763;28;20388;-58
2023/02/10 08:26:56;;;;;;;34.17;19.10;;;10.00;99.90;;;;;;5029973;28;20401;-58
2023/02/10 08:29:22;;;;;;;36.25;20.48;;;10.10;99.90;;;;;;5030678;28;20433;-58
2023/02/10 08:31:52;;;;;;;33.20;18.30;;;10.00;99.90;;;;;;5030190;28;20761;-58
2023/02/10 08:34:19;;;;;;;36.38;19.70;;;10.10;99.90;;;;;;5030585;28;20406;-58
2023/02/10 08:36:46;;;;;;;34.90;18.67;;;10.40;99.90;;;;;;5030337;28;20395;-58
2023/02/10 08:39:12;;;;;;;33.00;19.60;;;10.30;99.90;;;;;;5030686;28;20446;-58
2023/02/10 08:41:39;;;;;;;36.30;19.38;;;10.40;99.90;;;;;;5030179;28;20843;-58
2023/02/10 08:44:05;;;;;;;33.27;18.67;;;10.10;99.90;;;;;;5029640;28;21004;-58
2023/02/10 08:46:32;;;;;;;35.38;19.45;;;10.40;99.90;;;;;;5030491;28;20902;-59
2023/02/10 08:49:00;;;;;;;40.65;20.63;;;11.10;99.90;;;;;;5029564;28;20411;-58
2023/02/10 08:51:27;;;;;;;39.70;21.10;;;11.00;99.90;;;;;;5030377;28;20421;-58
2023/02/10 08:53:53;;;;;;;34.10;20.55;;;10.90;99.90;;;;;;5029862;28;20899;-58
2023/02/10 08:56:19;;;;;;;30.88;21.05;;;11.00;99.90;;;;;;5029462;28;20391;-58
2023/02/10 08:58:45;;;;;;;35.13;20.97;;;11.10;99.90;;;;;;5030051;28;20903;-59
2023/02/10 09:01:16;;;;;;;35.33;17.80;;;11.00;99.90;;;;;;5029699;28;20445;-58
2023/02/10 09:03:42;;;;;;;35.60;18.58;;;11.00;99.90;;;;;;5030385;28;20436;-58
2023/02/10 09:06:23;;;;;;;34.53;22.60;;;11.60;99.90;;;;;;5029182;28;20383;-58
2023/02/10 09:08:50;;;;;;;36.72;22.95;;;11.80;99.90;;;;;;5029499;28;20445;-59
2023/02/10 09:11:16;;;;;;;36.40;25.30;;;12.20;99.90;;;;;;5022061;28;20395;-59
2023/02/10 09:13:42;;;;;;;32.05;23.60;;;12.20;99.90;;;;;;5025531;28;20397;-59
2023/02/10 09:16:08;;;;;;;38.73;25.20;;;12.30;99.90;;;;;;5029017;28;20398;-60
2023/02/10 09:18:35;;;;;;;36.17;25.20;;;12.50;99.90;;;;;;5029827;28;20407;-58
2023/02/10 09:21:01;;;;;;;36.30;24.85;;;12.40;99.90;;;;;;5029015;28;20411;-59
2023/02/10 09:23:27;;;;;;;38.70;23.65;;;12.00;99.90;;;;;;5029350;28;20887;-58
2023/02/10 09:25:58;;;;;;;36.53;24.15;;;11.50;99.90;;;;;;5028937;28;20958;-59
2023/02/10 09:28:25;;;;;;;34.08;22.83;;;11.70;99.90;;;;;;5029734;28;20429;-58
2023/02/10 09:30:51;;;;;;;31.80;22.35;;;12.30;99.90;;;;;;5029602;28;20430;-58
2023/02/10 09:33:17;;;;;;;37.47;23.73;;;12.40;99.90;;;;;;5029947;28;20407;-58
2023/02/10 09:35:42;;;;;;;35.65;23.83;;;12.30;99.90;;;;;;5030216;28;20387;-59
2023/02/10 09:38:13;;;;;;;38.20;24.77;;;12.80;99.90;;;;;;5010759;28;20410;-58
2023/02/10 09:41:03;;;;;;;37.05;24.92;;;13.60;99.90;;;;;;5029623;28;20458;-59
2023/02/10 09:43:44;;;;;;;34.88;24.05;;;13.50;99.90;;;;;;5029359;28;20411;-59
2023/02/10 09:46:29;;;;;;;39.70;24.95;;;13.30;99.90;;;;;;5029301;28;20898;-59
2023/02/10 09:49:32;;;;;;;37.75;25.13;;;13.00;99.90;;;;;;5026782;28;20905;-59
2023/02/10 09:52:14;;;;;;;37.50;25.60;;;13.30;99.90;;;;;;5028422;28;20418;-59
2023/02/10 09:54:40;;;;;;;36.60;25.50;;;14.20;99.90;;;;;;5029406;28;20387;-57
2023/02/10 09:57:18;;;;;;;39.58;25.00;;;14.10;99.90;;;;;;5028446;28;20590;-59
2023/02/10 09:59:45;;;;;;;32.55;24.40;;;13.60;99.90;;;;;;5029481;28;20406;-59
2023/02/10 10:02:21;;;;;;;33.78;23.58;;;13.60;99.90;;;;;;5028695;28;20876;-57
2023/02/10 10:04:46;;;;;;;38.47;26.48;;;13.80;99.90;;;;;;5028909;28;20401;-57
2023/02/10 10:07:35;;;;;;;35.47;24.30;;;14.40;99.90;;;;;;5027373;28;20403;-57
2023/02/10 10:10:33;;;;;;;41.35;25.35;;;14.00;99.90;;;;;;5028206;28;20427;-57
2023/02/10 10:12:58;;;;;;;33.05;25.13;;;14.40;99.90;;;;;;5027572;28;20403;-57
2023/02/10 10:15:31;;;;;;;35.10;25.90;;;13.80;99.90;;;;;;5028697;28;20780;-57
2023/02/10 10:18:13;;;;;;;40.55;26.52;;;14.60;99.90;;;;;;5028523;28;20445;-57
2023/02/10 10:21:00;;;;;;;37.33;25.42;;;15.70;99.90;;;;;;5028992;28;20395;-57
2023/02/10 10:23:44;;;;;;;38.08;27.60;;;16.00;99.90;;;;;;5028770;28;20395;-57
2023/02/10 10:26:16;;;;;;;41.28;27.75;;;15.80;99.90;;;;;;5028472;28;20482;-57
2023/02/10 10:28:59;;;;;;;37.57;29.10;;;15.80;99.90;;;;;;5028484;28;20886;-57
2023/02/10 10:31:30;;;;;;;36.97;28.10;;;16.30;99.90;;;;;;5028552;28;20762;-57
2023/02/10 10:34:05;;;;;;;38.78;28.70;;;17.10;99.90;;;;;;5027734;28;21269;-57
2023/02/10 10:36:46;;;;;;;36.75;29.42;;;16.40;99.90;;;;;;5028825;28;20391;-57
2023/02/10 10:39:33;;;;;;;37.42;29.65;;;16.20;99.90;;;;;;5020656;28;20460;-57
2023/02/10 10:42:04;;;;;;;34.75;28.98;;;15.60;99.90;;;;;;5028163;28;20495;-57
2023/02/10 10:44:31;;;;;;;35.65;27.45;;;16.50;99.90;;;;;;5028672;28;20776;-57
2023/02/10 10:47:24;;;;;;;36.28;27.60;;;16.40;99.90;;;;;;5028058;28;20458;-57
2023/02/10 10:49:50;;;;;;;33.92;27.00;;;15.90;99.90;;;;;;5023489;28;20447;-57
2023/02/10 10:52:31;;;;;;;34.00;27.20;;;15.90;99.90;;;;;;5020083;28;20387;-58
2023/02/10 10:55:01;;;;;;;34.30;25.65;;;16.00;99.90;;;;;;5015304;28;20482;-57
2023/02/10 10:57:28;;;;;;;35.65;24.70;;;16.00;99.90;;;;;;5014115;28;20399;-57
2023/02/10 11:00:26;;;;;;;32.90;24.40;;;15.30;99.90;;;;;;5028847;28;20512;-58
2023/02/10 11:02:58;;;;;;;38.58;25.85;;;15.60;99.90;;;;;;5027044;28;20403;-57
2023/02/10 11:05:36;;;;;;;31.02;23.42;;;15.10;99.90;;;;;;5028627;28;20399;-57
2023/02/10 11:08:04;;;;;;;34.45;24.25;;;14.80;99.90;;;;;;5027605;28;20417;-58
2023/02/10 11:10:49;;;;;;;37.40;27.30;;;15.50;99.90;;;;;;5028229;28;20494;-57
2023/02/10 11:13:40;;;;;;;34.28;23.00;;;14.80;99.90;;;;;;5022549;28;20449;-59
2023/02/10 11:16:15;;;;;;;34.00;22.43;;;14.90;99.90;;;;;;5016882;28;20431;-58
2023/02/10 11:19:00;;;;;;;37.83;23.02;;;15.00;99.90;;;;;;5029370;28;20434;-57
2023/02/10 11:21:37;;;;;;;34.63;22.67;;;15.20;99.90;;;;;;5030490;28;20399;-58
2023/02/10 11:24:15;;;;;;;32.53;23.45;;;14.40;99.90;;;;;;5013150;28;20395;-57
2023/02/10 11:26:43;;;;;;;28.77;20.42;;;14.10;99.90;;;;;;5026931;28;20903;-57
2023/02/10 11:29:12;;;;;;;30.75;21.40;;;13.90;99.90;;;;;;5011425;28;20442;-57
2023/02/10 11:31:38;;;;;;;31.10;20.20;;;13.70;99.90;;;;;;5023861;28;20401;-57
2023/02/10 11:34:23;;;;;;;34.65;21.90;;;13.10;99.90;;;;;;5030622;28;20486;-57
2023/02/10 11:36:51;;;;;;;27.60;18.30;;;12.80;99.90;;;;;;5031139;28;20430;-57
2023/02/10 11:39:21;;;;;;;26.08;18.02;;;12.40;99.90;;;;;;5031460;28;20381;-57
2023/02/10 11:41:48;;;;;;;32.17;18.33;;;11.90;99.90;;;;;;5030809;28;20406;-57
2023/02/10 11:44:32;;;;;;;29.27;17.85;;;11.50;99.90;;;;;;5030921;28;20385;-57
2023/02/10 11:47:13;;;;;;;30.35;19.15;;;10.60;99.90;;;;;;5029120;28;20744;-57
2023/02/10 11:49:44;;;;;;;29.77;17.38;;;10.20;99.90;;;;;;5027104;28;20466;-58
2023/02/10 11:52:10;;;;;;;30.10;17.67;;;10.10;99.90;;;;;;5028658;28;20474;-57
2023/02/10 11:54:37;;;;;;;32.10;17.80;;;10.10;99.90;;;;;;5028926;28;20391;-57
2023/02/10 12:00:33;;;;;;;28.35;18.05;;;9.80;99.90;;;;;;5030476;28;20985;-57
2023/02/10 12:03:08;;;;;;;30.45;17.55;;;9.60;99.90;;;;;;5030509;28;20384;-57
2023/02/10 12:05:45;;;;;;;28.37;17.50;;;9.60;99.90;;;;;;5025334;28;20466;-57
2023/02/10 12:08:37;;;;;;;30.05;17.15;;;9.90;99.90;;;;;;5028905;28;20411;-56
2023/02/10 12:11:23;;;;;;;26.77;17.33;;;9.80;99.90;;;;;;5030061;28;20490;-57
2023/02/10 12:14:13;;;;;;;31.73;17.60;;;9.80;99.90;;;;;;5031296;28;20465;-58
2023/02/10 12:17:03;;;;;;;31.15;17.50;;;10.00;99.90;;;;;;5031178;28;20406;-56
2023/02/10 12:19:51;;;;;;;32.20;17.48;;;9.90;99.90;;;;;;5029590;28;20391;-57
2023/02/10 12:22:52;;;;;;;32.92;16.67;;;10.00;99.90;;;;;;5027704;28;20411;-57
2023/02/10 12:25:34;;;;;;;27.90;16.55;;;9.60;99.90;;;;;;5029728;28;20395;-57
2023/02/10 12:28:10;;;;;;;26.35;16.45;;;9.20;99.90;;;;;;5028310;28;20403;-57
2023/02/10 12:31:13;;;;;;;26.37;16.53;;;8.90;99.90;;;;;;5029023;28;20438;-57
2023/02/10 12:33:39;;;;;;;29.20;16.10;;;8.90;99.90;;;;;;5007754;28;20912;-57
2023/02/10 12:36:34;;;;;;;26.70;16.50;;;9.00;99.90;;;;;;5028539;28;20494;-57
2023/02/10 12:39:14;;;;;;;28.42;16.70;;;9.30;99.90;;;;;;5028399;28;20453;-57
2023/02/10 12:41:52;;;;;;;26.02;16.90;;;9.40;99.90;;;;;;5029979;28;20388;-57
2023/02/10 12:45:07;;;;;;;28.10;15.63;;;9.30;99.90;;;;;;5030476;28;20407;-56
2023/02/10 12:47:55;;;;;;;35.47;19.40;;;9.40;99.90;;;;;;4987267;28;20954;-57
2023/02/10 12:50:33;;;;;;;29.05;16.75;;;9.80;99.90;;;;;;5030350;28;20392;-57
2023/02/10 12:53:32;;;;;;;29.90;16.83;;;9.40;99.90;;;;;;5029198;28;20573;-57
2023/02/10 12:56:19;;;;;;;27.38;15.45;;;9.10;99.90;;;;;;5028133;28;21070;-57
2023/02/10 12:58:59;;;;;;;33.15;17.45;;;9.20;99.90;;;;;;5026685;28;20914;-57
2023/02/10 13:01:24;;;;;;;34.60;18.63;;;9.50;99.90;;;;;;5010777;28;20423;-56